sensor_id;sensor_type;location;lat;lon;timestamp;pressure;altitude;pressure_sealevel;temperature;humidity
10310;BME280;5200;43.236;27.986;2023-11-19T00:01:57;98632.69;;;0.29;100.00
10310;BME280;5200;43.236;27.986;2023-11-19T00:04:24;98681.91;;;0.53;100.00
10310;BME280;5200;43.236;27.986;2023-11-19T00:06:51;98665.91;;;0.22;100.00
10310;BME280;5200;43.236;27.986;2023-11-19T00:09:18;98675.31;;;0.23;100.00
10310;BME280;5200;43.236;27.986;2023-11-19T00:11:46;98710.19;;;0.30;100.00
10310;BME280;5200;43.236;27.986;2023-11-19T00:14:13;98769.69;;;0.30;100.00
10310;BME280;5200;43.236;27.986;2023-11-19T00:16:40;98768.94;;;0.54;100.00
10310;BME280;5200;43.236;27.986;2023-11-19T00:19:06;98708.03;;;0.24;100.00
10310;BME280;5200;43.236;27.986;2023-11-19T00:21:34;98840.47;;;0.42;100.00
10310;BME280;5200;43.236;27.986;2023-11-19T00:24:02;98738.84;;;0.27;100.00
10310;BME280;5200;43.236;27.986;2023-11-19T00:26:29;98739.66;;;0.28;100.00
10310;BME280;5200;43.236;27.986;2023-11-19T00:28:58;98830.16;;;0.55;100.00
10310;BME280;5200;43.236;27.986;2023-11-19T00:31:25;98803.44;;;0.41;100.00
10310;BME280;5200;43.236;27.986;2023-11-19T00:33:53;98835.34;;;0.55;100.00
10310;BME280;5200;43.236;27.986;2023-11-19T00:36:20;98771.53;;;0.28;100.00
10310;BME280;5200;43.236;27.986;2023-11-19T00:38:49;98840.28;;;0.58;100.00
10310;BME280;5200;43.236;27.986;2023-11-19T00:41:18;98818.44;;;0.49;100.00
10310;BME280;5200;43.236;27.986;2023-11-19T00:43:47;98797.41;;;0.28;100.00
10310;BME280;5200;43.236;27.986;2023-11-19T00:46:22;98771.75;;;0.25;100.00
10310;BME280;5200;43.236;27.986;2023-11-19T00:48:54;98855.00;;;0.57;100.00
10310;BME280;5200;43.236;27.986;2023-11-19T00:51:26;98852.09;;;0.62;100.00
10310;BME280;5200;43.236;27.986;2023-11-19T00:53:53;98884.63;;;0.66;100.00
10310;BME280;5200;43.236;27.986;2023-11-19T00:56:27;98832.41;;;0.47;100.00
10310;BME280;5200;43.236;27.986;2023-11-19T00:58:54;98891.47;;;0.67;100.00
10310;BME280;5200;43.236;27.986;2023-11-19T01:01:28;98887.91;;;0.68;100.00
10310;BME280;5200;43.236;27.986;2023-11-19T01:03:58;98845.88;;;0.26;100.00
10310;BME280;5200;43.236;27.986;2023-11-19T01:06:28;98897.16;;;0.59;100.00
10310;BME280;5200;43.236;27.986;2023-11-19T01:08:55;98876.41;;;0.47;100.00
10310;BME280;5200;43.236;27.986;2023-11-19T01:11:23;98940.25;;;0.73;100.00
10310;BME280;5200;43.236;27.986;2023-11-19T01:13:50;98950.59;;;0.73;100.00
10310;BME280;5200;43.236;27.986;2023-11-19T01:16:17;98937.00;;;0.57;100.00
10310;BME280;5200;43.236;27.986;2023-11-19T01:18:46;98946.78;;;0.66;100.00
10310;BME280;5200;43.236;27.986;2023-11-19T01:21:13;98961.06;;;0.72;100.00
10310;BME280;5200;43.236;27.986;2023-11-19T01:23:41;98976.50;;;0.73;100.00
10310;BME280;5200;43.236;27.986;2023-11-19T01:26:09;98923.19;;;0.44;100.00
10310;BME280;5200;43.236;27.986;2023-11-19T01:28:37;98948.63;;;0.64;100.00
10310;BME280;5200;43.236;27.986;2023-11-19T01:31:10;98898.28;;;0.43;100.00
10310;BME280;5200;43.236;27.986;2023-11-19T01:33:38;98977.22;;;0.75;100.00
10310;BME280;5200;43.236;27.986;2023-11-19T01:36:07;98951.00;;;0.67;100.00
10310;BME280;5200;43.236;27.986;2023-11-19T01:38:34;98970.28;;;0.76;100.00
10310;BME280;5200;43.236;27.986;2023-11-19T01:41:03;98987.97;;;0.69;100.00
10310;BME280;5200;43.236;27.986;2023-11-19T01:43:34;98921.28;;;0.60;100.00
10310;BME280;5200;43.236;27.986;2023-11-19T01:46:01;98903.31;;;0.44;100.00
10310;BME280;5200;43.236;27.986;2023-11-19T01:48:28;98955.06;;;0.71;100.00
10310;BME280;5200;43.236;27.986;2023-11-19T01:50:55;98942.81;;;0.60;100.00
10310;BME280;5200;43.236;27.986;2023-11-19T01:53:24;98957.50;;;0.60;100.00
10310;BME280;5200;43.236;27.986;2023-11-19T01:55:51;98913.38;;;0.36;100.00
10310;BME280;5200;43.236;27.986;2023-11-19T01:58:19;98923.78;;;0.61;100.00
10310;BME280;5200;43.236;27.986;2023-11-19T02:00:46;98940.56;;;0.69;100.00
10310;BME280;5200;43.236;27.986;2023-11-19T02:03:14;98957.13;;;0.66;100.00
10310;BME280;5200;43.236;27.986;2023-11-19T02:05:41;98963.94;;;0.67;100.00
10310;BME280;5200;43.236;27.986;2023-11-19T02:08:09;98961.44;;;0.66;100.00
10310;BME280;5200;43.236;27.986;2023-11-19T02:10:37;98973.69;;;0.63;100.00
10310;BME280;5200;43.236;27.986;2023-11-19T02:13:04;98929.47;;;0.27;100.00
10310;BME280;5200;43.236;27.986;2023-11-19T02:15:32;98971.06;;;0.51;100.00
10310;BME280;5200;43.236;27.986;2023-11-19T02:18:19;98959.28;;;0.59;100.00
10310;BME280;5200;43.236;27.986;2023-11-19T02:20:47;98985.78;;;0.63;100.00
10310;BME280;5200;43.236;27.986;2023-11-19T02:23:14;98987.38;;;0.38;100.00
10310;BME280;5200;43.236;27.986;2023-11-19T02:25:43;98951.22;;;0.64;100.00
10310;BME280;5200;43.236;27.986;2023-11-19T02:28:16;98901.75;;;0.41;100.00
10310;BME280;5200;43.236;27.986;2023-11-19T02:30:43;98978.81;;;0.51;100.00
10310;BME280;5200;43.236;27.986;2023-11-19T02:33:10;98938.78;;;0.29;100.00
10310;BME280;5200;43.236;27.986;2023-11-19T02:35:38;98938.88;;;0.55;100.00
10310;BME280;5200;43.236;27.986;2023-11-19T02:38:06;98903.16;;;0.20;100.00
10310;BME280;5200;43.236;27.986;2023-11-19T02:40:33;98934.84;;;0.24;100.00
10310;BME280;5200;43.236;27.986;2023-11-19T02:43:00;98928.84;;;0.23;100.00
10310;BME280;5200;43.236;27.986;2023-11-19T02:45:31;98945.06;;;0.12;100.00
10310;BME280;5200;43.236;27.986;2023-11-19T02:47:58;99013.19;;;0.53;100.00
10310;BME280;5200;43.236;27.986;2023-11-19T02:50:27;99012.50;;;0.36;100.00
10310;BME280;5200;43.236;27.986;2023-11-19T02:52:55;99009.66;;;0.54;100.00
10310;BME280;5200;43.236;27.986;2023-11-19T02:55:22;99018.56;;;0.50;100.00
10310;BME280;5200;43.236;27.986;2023-11-19T02:57:50;99035.75;;;0.51;100.00
10310;BME280;5200;43.236;27.986;2023-11-19T03:00:19;99020.22;;;0.51;100.00
10310;BME280;5200;43.236;27.986;2023-11-19T03:02:50;98996.66;;;0.14;100.00
10310;BME280;5200;43.236;27.986;2023-11-19T03:05:26;99035.75;;;0.51;100.00
10310;BME280;5200;43.236;27.986;2023-11-19T03:07:55;98961.41;;;0.13;100.00
10310;BME280;5200;43.236;27.986;2023-11-19T03:10:23;99000.34;;;0.24;100.00
10310;BME280;5200;43.236;27.986;2023-11-19T03:12:50;99093.63;;;0.50;100.00
10310;BME280;5200;43.236;27.986;2023-11-19T03:15:17;99072.97;;;0.21;100.00
10310;BME280;5200;43.236;27.986;2023-11-19T03:17:44;99062.56;;;0.50;100.00
10310;BME280;5200;43.236;27.986;2023-11-19T03:20:12;98939.81;;;-0.01;100.00
10310;BME280;5200;43.236;27.986;2023-11-19T03:22:42;99029.84;;;0.49;100.00
10310;BME280;5200;43.236;27.986;2023-11-19T03:25:09;99040.06;;;0.23;100.00
10310;BME280;5200;43.236;27.986;2023-11-19T03:27:36;98991.50;;;0.14;100.00
10310;BME280;5200;43.236;27.986;2023-11-19T03:30:05;99065.34;;;0.47;100.00
10310;BME280;5200;43.236;27.986;2023-11-19T03:32:32;99055.94;;;0.46;100.00
10310;BME280;5200;43.236;27.986;2023-11-19T03:35:00;99006.44;;;0.23;100.00
10310;BME280;5200;43.236;27.986;2023-11-19T03:37:28;99037.59;;;0.49;100.00
10310;BME280;5200;43.236;27.986;2023-11-19T03:39:56;99018.50;;;0.37;100.00
10310;BME280;5200;43.236;27.986;2023-11-19T03:42:25;99017.03;;;0.33;100.00
10310;BME280;5200;43.236;27.986;2023-11-19T03:44:52;99030.22;;;0.15;100.00
10310;BME280;5200;43.236;27.986;2023-11-19T03:47:19;99063.72;;;0.31;100.00
10310;BME280;5200;43.236;27.986;2023-11-19T03:49:47;99025.88;;;0.16;100.00
10310;BME280;5200;43.236;27.986;2023-11-19T03:52:15;99050.53;;;0.49;100.00
10310;BME280;5200;43.236;27.986;2023-11-19T03:54:44;98974.72;;;0.07;100.00
10310;BME280;5200;43.236;27.986;2023-11-19T03:57:11;99018.13;;;0.43;100.00
10310;BME280;5200;43.236;27.986;2023-11-19T03:59:38;99060.56;;;0.40;100.00
10310;BME280;5200;43.236;27.986;2023-11-19T04:02:05;99002.41;;;0.19;100.00
10310;BME280;5200;43.236;27.986;2023-11-19T04:04:32;99075.53;;;0.50;100.00
10310;BME280;5200;43.236;27.986;2023-11-19T04:07:00;99028.25;;;0.33;100.00
10310;BME280;5200;43.236;27.986;2023-11-19T04:09:28;99020.41;;;0.20;100.00
10310;BME280;5200;43.236;27.986;2023-11-19T04:11:56;99025.16;;;0.41;100.00
10310;BME280;5200;43.236;27.986;2023-11-19T04:14:23;99080.50;;;0.53;100.00
10310;BME280;5200;43.236;27.986;2023-11-19T04:16:50;99029.63;;;0.25;100.00
10310;BME280;5200;43.236;27.986;2023-11-19T04:19:17;99140.38;;;0.61;100.00
10310;BME280;5200;43.236;27.986;2023-11-19T04:21:44;99083.13;;;0.38;100.00
10310;BME280;5200;43.236;27.986;2023-11-19T04:24:11;99072.75;;;0.38;100.00
10310;BME280;5200;43.236;27.986;2023-11-19T04:26:40;99023.25;;;0.30;100.00
10310;BME280;5200;43.236;27.986;2023-11-19T04:29:11;99018.81;;;0.32;100.00
10310;BME280;5200;43.236;27.986;2023-11-19T04:31:37;99080.13;;;0.59;100.00
10310;BME280;5200;43.236;27.986;2023-11-19T04:34:05;99111.44;;;0.69;100.00
10310;BME280;5200;43.236;27.986;2023-11-19T04:36:32;99096.72;;;0.69;100.00
10310;BME280;5200;43.236;27.986;2023-11-19T04:38:59;99099.75;;;0.76;100.00
10310;BME280;5200;43.236;27.986;2023-11-19T04:41:26;99038.00;;;0.43;100.00
10310;BME280;5200;43.236;27.986;2023-11-19T04:43:54;99070.50;;;0.47;100.00
10310;BME280;5200;43.236;27.986;2023-11-19T04:46:22;99027.06;;;0.52;100.00
10310;BME280;5200;43.236;27.986;2023-11-19T04:48:49;99003.22;;;0.47;100.00
10310;BME280;5200;43.236;27.986;2023-11-19T04:51:17;99023.50;;;0.67;100.00
10310;BME280;5200;43.236;27.986;2023-11-19T04:53:43;99113.31;;;0.79;100.00
10310;BME280;5200;43.236;27.986;2023-11-19T04:56:11;99122.03;;;0.78;100.00
10310;BME280;5200;43.236;27.986;2023-11-19T04:58:38;99149.78;;;0.76;100.00
10310;BME280;5200;43.236;27.986;2023-11-19T05:01:05;99083.25;;;0.64;100.00
10310;BME280;5200;43.236;27.986;2023-11-19T05:03:34;99049.56;;;0.37;100.00
10310;BME280;5200;43.236;27.986;2023-11-19T05:06:01;99108.94;;;0.67;100.00
10310;BME280;5200;43.236;27.986;2023-11-19T05:08:28;99078.09;;;0.50;100.00
10310;BME280;5200;43.236;27.986;2023-11-19T05:10:55;99037.94;;;0.30;100.00
10310;BME280;5200;43.236;27.986;2023-11-19T05:13:23;99121.25;;;0.63;100.00
10310;BME280;5200;43.236;27.986;2023-11-19T05:15:50;99120.22;;;0.66;100.00
10310;BME280;5200;43.236;27.986;2023-11-19T05:18:17;99155.44;;;0.69;100.00
10310;BME280;5200;43.236;27.986;2023-11-19T05:20:46;98998.75;;;0.36;100.00
10310;BME280;5200;43.236;27.986;2023-11-19T05:23:12;99018.44;;;0.38;100.00
10310;BME280;5200;43.236;27.986;2023-11-19T05:25:39;99120.06;;;0.55;100.00
10310;BME280;5200;43.236;27.986;2023-11-19T05:28:06;99137.94;;;0.72;100.00
10310;BME280;5200;43.236;27.986;2023-11-19T05:30:33;99149.25;;;0.71;100.00
10310;BME280;5200;43.236;27.986;2023-11-19T05:33:00;99097.91;;;0.36;100.00
10310;BME280;5200;43.236;27.986;2023-11-19T05:35:27;99190.47;;;0.74;100.00
10310;BME280;5200;43.236;27.986;2023-11-19T05:37:55;99123.13;;;0.47;100.00
10310;BME280;5200;43.236;27.986;2023-11-19T05:40:22;99099.28;;;0.42;100.00
10310;BME280;5200;43.236;27.986;2023-11-19T05:42:49;99069.53;;;0.35;100.00
10310;BME280;5200;43.236;27.986;2023-11-19T05:45:16;99163.88;;;0.44;100.00
10310;BME280;5200;43.236;27.986;2023-11-19T05:47:43;99214.03;;;0.84;100.00
10310;BME280;5200;43.236;27.986;2023-11-19T05:50:10;99149.94;;;0.32;100.00
10310;BME280;5200;43.236;27.986;2023-11-19T05:52:37;99195.81;;;0.86;100.00
10310;BME280;5200;43.236;27.986;2023-11-19T05:55:06;99206.38;;;0.82;100.00
10310;BME280;5200;43.236;27.986;2023-11-19T05:57:35;99147.59;;;0.56;100.00
10310;BME280;5200;43.236;27.986;2023-11-19T06:00:02;99146.22;;;0.50;100.00
10310;BME280;5200;43.236;27.986;2023-11-19T06:02:32;99154.00;;;0.50;100.00
10310;BME280;5200;43.236;27.986;2023-11-19T06:04:59;99172.84;;;0.52;100.00
10310;BME280;5200;43.236;27.986;2023-11-19T06:07:26;99208.16;;;0.53;100.00
10310;BME280;5200;43.236;27.986;2023-11-19T06:09:53;99191.22;;;0.76;100.00
10310;BME280;5200;43.236;27.986;2023-11-19T06:12:21;99142.44;;;0.41;100.00
10310;BME280;5200;43.236;27.986;2023-11-19T06:14:48;99206.94;;;0.73;100.00
10310;BME280;5200;43.236;27.986;2023-11-19T06:17:15;99220.72;;;0.74;100.00
10310;BME280;5200;43.236;27.986;2023-11-19T06:19:41;99191.59;;;0.41;100.00
10310;BME280;5200;43.236;27.986;2023-11-19T06:22:08;99198.44;;;0.28;100.00
10310;BME280;5200;43.236;27.986;2023-11-19T06:24:35;99202.78;;;0.42;100.00
10310;BME280;5200;43.236;27.986;2023-11-19T06:27:03;99245.59;;;0.62;100.00
10310;BME280;5200;43.236;27.986;2023-11-19T06:29:31;99191.81;;;0.38;100.00
10310;BME280;5200;43.236;27.986;2023-11-19T06:31:58;99257.88;;;0.58;100.00
10310;BME280;5200;43.236;27.986;2023-11-19T06:34:25;99193.72;;;0.35;100.00
10310;BME280;5200;43.236;27.986;2023-11-19T06:36:52;99297.66;;;0.72;100.00
10310;BME280;5200;43.236;27.986;2023-11-19T06:39:19;99233.22;;;0.38;100.00
10310;BME280;5200;43.236;27.986;2023-11-19T06:41:46;99248.34;;;0.45;100.00
10310;BME280;5200;43.236;27.986;2023-11-19T06:44:14;99273.59;;;0.70;100.00
10310;BME280;5200;43.236;27.986;2023-11-19T06:46:42;99267.97;;;0.63;100.00
10310;BME280;5200;43.236;27.986;2023-11-19T06:49:09;99235.06;;;0.51;100.00
10310;BME280;5200;43.236;27.986;2023-11-19T06:51:35;99296.81;;;0.71;100.00
10310;BME280;5200;43.236;27.986;2023-11-19T06:54:07;99306.25;;;0.58;100.00
10310;BME280;5200;43.236;27.986;2023-11-19T06:56:34;99234.31;;;0.49;100.00
10310;BME280;5200;43.236;27.986;2023-11-19T06:59:00;99270.66;;;0.61;100.00
10310;BME280;5200;43.236;27.986;2023-11-19T07:01:27;99232.09;;;0.71;100.00
10310;BME280;5200;43.236;27.986;2023-11-19T07:03:55;99301.41;;;0.52;100.00
10310;BME280;5200;43.236;27.986;2023-11-19T07:06:23;99291.25;;;0.63;100.00
10310;BME280;5200;43.236;27.986;2023-11-19T07:08:50;99247.72;;;0.27;100.00
10310;BME280;5200;43.236;27.986;2023-11-19T07:11:17;99251.88;;;0.29;100.00
10310;BME280;5200;43.236;27.986;2023-11-19T07:13:43;99335.00;;;0.53;100.00
10310;BME280;5200;43.236;27.986;2023-11-19T07:16:14;99295.31;;;0.24;100.00
10310;BME280;5200;43.236;27.986;2023-11-19T07:18:41;99307.75;;;0.17;100.00
10310;BME280;5200;43.236;27.986;2023-11-19T07:21:10;99273.38;;;0.15;100.00
10310;BME280;5200;43.236;27.986;2023-11-19T07:23:37;99358.25;;;0.39;100.00
10310;BME280;5200;43.236;27.986;2023-11-19T07:26:05;99337.47;;;0.40;100.00
10310;BME280;5200;43.236;27.986;2023-11-19T07:28:34;99315.44;;;0.19;100.00
10310;BME280;5200;43.236;27.986;2023-11-19T07:31:01;99338.53;;;0.22;100.00
10310;BME280;5200;43.236;27.986;2023-11-19T07:33:28;99358.94;;;0.43;100.00
10310;BME280;5200;43.236;27.986;2023-11-19T07:36:01;99356.72;;;0.51;100.00
10310;BME280;5200;43.236;27.986;2023-11-19T07:38:29;99377.88;;;0.43;100.00
10310;BME280;5200;43.236;27.986;2023-11-19T07:40:56;99372.25;;;0.51;100.00
10310;BME280;5200;43.236;27.986;2023-11-19T07:43:23;99362.81;;;0.50;100.00
10310;BME280;5200;43.236;27.986;2023-11-19T07:45:50;99372.25;;;0.51;100.00
10310;BME280;5200;43.236;27.986;2023-11-19T07:48:19;99341.31;;;0.19;100.00
10310;BME280;5200;43.236;27.986;2023-11-19T07:50:48;99373.75;;;0.25;100.00
10310;BME280;5200;43.236;27.986;2023-11-19T07:53:16;99416.81;;;0.56;100.00
10310;BME280;5200;43.236;27.986;2023-11-19T07:55:44;99409.78;;;0.58;100.00
10310;BME280;5200;43.236;27.986;2023-11-19T07:58:11;99445.53;;;0.51;100.00
10310;BME280;5200;43.236;27.986;2023-11-19T08:00:38;99409.25;;;0.67;100.00
10310;BME280;5200;43.236;27.986;2023-11-19T08:03:05;99358.78;;;0.30;100.00
10310;BME280;5200;43.236;27.986;2023-11-19T08:05:33;99361.69;;;0.39;100.00
10310;BME280;5200;43.236;27.986;2023-11-19T08:07:59;99411.84;;;0.67;100.00
10310;BME280;5200;43.236;27.986;2023-11-19T08:10:27;99370.75;;;0.47;100.00
10310;BME280;5200;43.236;27.986;2023-11-19T08:12:55;99356.34;;;0.43;100.00
10310;BME280;5200;43.236;27.986;2023-11-19T08:15:22;99393.38;;;0.73;100.00
10310;BME280;5200;43.236;27.986;2023-11-19T08:17:49;99397.06;;;0.69;100.00
10310;BME280;5200;43.236;27.986;2023-11-19T08:20:16;99416.09;;;0.68;100.00
10310;BME280;5200;43.236;27.986;2023-11-19T08:22:43;99355.22;;;0.47;100.00
10310;BME280;5200;43.236;27.986;2023-11-19T08:25:10;99378.59;;;0.75;100.00
10310;BME280;5200;43.236;27.986;2023-11-19T08:27:37;99403.28;;;0.81;100.00
10310;BME280;5200;43.236;27.986;2023-11-19T08:30:06;99391.81;;;0.85;100.00
10310;BME280;5200;43.236;27.986;2023-11-19T08:32:33;99406.81;;;0.50;100.00
10310;BME280;5200;43.236;27.986;2023-11-19T08:35:00;99417.31;;;0.77;100.00
10310;BME280;5200;43.236;27.986;2023-11-19T08:37:27;99378.00;;;0.70;100.00
10310;BME280;5200;43.236;27.986;2023-11-19T08:39:54;99463.38;;;0.72;100.00
10310;BME280;5200;43.236;27.986;2023-11-19T08:42:21;99417.31;;;0.77;100.00
10310;BME280;5200;43.236;27.986;2023-11-19T08:44:49;99407.06;;;0.75;100.00
10310;BME280;5200;43.236;27.986;2023-11-19T08:47:17;99386.50;;;0.58;100.00
10310;BME280;5200;43.236;27.986;2023-11-19T08:49:44;99460.25;;;0.81;100.00
10310;BME280;5200;43.236;27.986;2023-11-19T08:52:11;99408.91;;;0.73;100.00
10310;BME280;5200;43.236;27.986;2023-11-19T08:54:42;99431.31;;;0.89;100.00
10310;BME280;5200;43.236;27.986;2023-11-19T08:57:09;99408.09;;;0.87;100.00
10310;BME280;5200;43.236;27.986;2023-11-19T08:59:36;99370.78;;;0.61;100.00
10310;BME280;5200;43.236;27.986;2023-11-19T09:02:04;99362.38;;;0.57;100.00
10310;BME280;5200;43.236;27.986;2023-11-19T09:04:32;99410.38;;;0.77;100.00
10310;BME280;5200;43.236;27.986;2023-11-19T09:06:59;99385.41;;;0.62;100.00
10310;BME280;5200;43.236;27.986;2023-11-19T09:09:26;99434.84;;;1.02;100.00
10310;BME280;5200;43.236;27.986;2023-11-19T09:11:53;99387.28;;;0.89;100.00
10310;BME280;5200;43.236;27.986;2023-11-19T09:14:20;99382.75;;;0.92;100.00
10310;BME280;5200;43.236;27.986;2023-11-19T09:16:49;99419.66;;;1.24;100.00
10310;BME280;5200;43.236;27.986;2023-11-19T09:19:16;99392.44;;;1.32;100.00
10310;BME280;5200;43.236;27.986;2023-11-19T09:21:45;99416.53;;;1.19;100.00
10310;BME280;5200;43.236;27.986;2023-11-19T09:24:14;99342.13;;;0.93;100.00
10310;BME280;5200;43.236;27.986;2023-11-19T09:26:43;99403.41;;;1.22;100.00
10310;BME280;5200;43.236;27.986;2023-11-19T09:29:10;99399.03;;;1.37;100.00
10310;BME280;5200;43.236;27.986;2023-11-19T09:31:38;99387.66;;;1.11;100.00
10310;BME280;5200;43.236;27.986;2023-11-19T09:34:05;99449.84;;;1.40;100.00
10310;BME280;5200;43.236;27.986;2023-11-19T09:36:32;99434.00;;;1.44;100.00
10310;BME280;5200;43.236;27.986;2023-11-19T09:39:00;99385.63;;;1.16;100.00
10310;BME280;5200;43.236;27.986;2023-11-19T09:41:27;99437.06;;;1.51;100.00
10310;BME280;5200;43.236;27.986;2023-11-19T09:43:54;99473.19;;;1.54;100.00
10310;BME280;5200;43.236;27.986;2023-11-19T09:46:22;99452.97;;;1.59;100.00
10310;BME280;5200;43.236;27.986;2023-11-19T09:48:51;99408.94;;;1.31;100.00
10310;BME280;5200;43.236;27.986;2023-11-19T09:51:20;99441.50;;;1.63;100.00
10310;BME280;5200;43.236;27.986;2023-11-19T09:53:47;99418.53;;;1.43;100.00
10310;BME280;5200;43.236;27.986;2023-11-19T09:56:16;99477.03;;;1.76;100.00
10310;BME280;5200;43.236;27.986;2023-11-19T09:58:43;99415.88;;;1.44;100.00
10310;BME280;5200;43.236;27.986;2023-11-19T10:01:10;99484.66;;;1.79;100.00
10310;BME280;5200;43.236;27.986;2023-11-19T10:03:39;99403.44;;;1.50;100.00
10310;BME280;5200;43.236;27.986;2023-11-19T10:06:09;99413.00;;;1.49;100.00
10310;BME280;5200;43.236;27.986;2023-11-19T10:08:37;99400.94;;;1.48;100.00
10310;BME280;5200;43.236;27.986;2023-11-19T10:11:05;99438.69;;;1.81;100.00
10310;BME280;5200;43.236;27.986;2023-11-19T10:13:35;99439.69;;;1.78;100.00
10310;BME280;5200;43.236;27.986;2023-11-19T10:16:04;99431.84;;;1.80;100.00
10310;BME280;5200;43.236;27.986;2023-11-19T10:18:33;99452.59;;;1.80;100.00
10310;BME280;5200;43.236;27.986;2023-11-19T10:21:04;99450.03;;;1.93;100.00
10310;BME280;5200;43.236;27.986;2023-11-19T10:23:31;99442.78;;;1.71;100.00
10310;BME280;5200;43.236;27.986;2023-11-19T10:26:03;99423.88;;;1.68;100.00
10310;BME280;5200;43.236;27.986;2023-11-19T10:28:39;99380.53;;;1.71;100.00
10310;BME280;5200;43.236;27.986;2023-11-19T10:31:08;99451.44;;;1.98;100.00
10310;BME280;5200;43.236;27.986;2023-11-19T10:33:35;99474.06;;;1.96;100.00
10310;BME280;5200;43.236;27.986;2023-11-19T10:36:02;99464.50;;;1.97;100.00
10310;BME280;5200;43.236;27.986;2023-11-19T10:38:29;99460.88;;;1.99;100.00
10310;BME280;5200;43.236;27.986;2023-11-19T10:40:56;99500.53;;;2.01;100.00
10310;BME280;5200;43.236;27.986;2023-11-19T10:43:24;99501.09;;;2.06;100.00
10310;BME280;5200;43.236;27.986;2023-11-19T10:45:52;99508.59;;;2.11;100.00
10310;BME280;5200;43.236;27.986;2023-11-19T10:48:19;99424.78;;;1.82;100.00
10310;BME280;5200;43.236;27.986;2023-11-19T10:50:50;99515.25;;;2.15;100.00
10310;BME280;5200;43.236;27.986;2023-11-19T10:53:20;99521.19;;;2.17;100.00
10310;BME280;5200;43.236;27.986;2023-11-19T10:55:47;99516.50;;;2.37;100.00
10310;BME280;5200;43.236;27.986;2023-11-19T10:58:16;99494.09;;;2.48;100.00
10310;BME280;5200;43.236;27.986;2023-11-19T11:00:44;99500.03;;;2.50;100.00
10310;BME280;5200;43.236;27.986;2023-11-19T11:03:16;99483.63;;;2.50;100.00
10310;BME280;5200;43.236;27.986;2023-11-19T11:05:46;99496.66;;;2.36;100.00
10310;BME280;5200;43.236;27.986;2023-11-19T11:08:14;99515.25;;;2.69;100.00
10310;BME280;5200;43.236;27.986;2023-11-19T11:10:44;99448.09;;;2.50;100.00
10310;BME280;5200;43.236;27.986;2023-11-19T11:13:13;99460.13;;;2.51;100.00
10310;BME280;5200;43.236;27.986;2023-11-19T11:15:40;99524.09;;;2.80;100.00
10310;BME280;5200;43.236;27.986;2023-11-19T11:18:09;99491.44;;;2.63;100.00
10310;BME280;5200;43.236;27.986;2023-11-19T11:20:37;99468.88;;;2.50;100.00
10310;BME280;5200;43.236;27.986;2023-11-19T11:23:33;99471.59;;;2.62;100.00
10310;BME280;5200;43.236;27.986;2023-11-19T11:28:57;99443.94;;;2.61;100.00
10310;BME280;5200;43.236;27.986;2023-11-19T11:31:34;99458.75;;;2.73;100.00
10310;BME280;5200;43.236;27.986;2023-11-19T11:34:27;99499.44;;;3.00;100.00
10310;BME280;5200;43.236;27.986;2023-11-19T11:37:07;99507.63;;;2.93;100.00
10310;BME280;5200;43.236;27.986;2023-11-19T11:39:40;99489.88;;;2.60;100.00
10310;BME280;5200;43.236;27.986;2023-11-19T11:42:35;99510.09;;;2.82;100.00
10310;BME280;5200;43.236;27.986;2023-11-19T11:45:03;99520.09;;;2.88;100.00
10310;BME280;5200;43.236;27.986;2023-11-19T11:48:11;99499.94;;;2.92;100.00
10310;BME280;5200;43.236;27.986;2023-11-19T11:50:56;99489.06;;;2.60;100.00
10310;BME280;5200;43.236;27.986;2023-11-19T11:53:25;99467.41;;;2.46;100.00
10310;BME280;5200;43.236;27.986;2023-11-19T11:55:56;99499.06;;;2.66;100.00
10310;BME280;5200;43.236;27.986;2023-11-19T12:01:25;99533.66;;;2.79;100.00
10310;BME280;5200;43.236;27.986;2023-11-19T12:03:55;99530.16;;;2.80;100.00
10310;BME280;5200;43.236;27.986;2023-11-19T12:06:22;99506.88;;;2.91;100.00
10310;BME280;5200;43.236;27.986;2023-11-19T12:08:51;99482.31;;;2.70;100.00
10310;BME280;5200;43.236;27.986;2023-11-19T12:11:17;99526.34;;;2.99;100.00
10310;BME280;5200;43.236;27.986;2023-11-19T12:13:54;99506.19;;;3.02;100.00
10310;BME280;5200;43.236;27.986;2023-11-19T12:16:23;99503.50;;;3.04;100.00
10310;BME280;5200;43.236;27.986;2023-11-19T12:18:53;99475.78;;;2.77;100.00
10310;BME280;5200;43.236;27.986;2023-11-19T12:21:30;99560.69;;;3.04;100.00
10310;BME280;5200;43.236;27.986;2023-11-19T12:24:00;99523.25;;;3.06;100.00
10310;BME280;5200;43.236;27.986;2023-11-19T12:26:39;99558.59;;;3.09;100.00
10310;BME280;5200;43.236;27.986;2023-11-19T12:29:06;99504.31;;;3.04;100.00
10310;BME280;5200;43.236;27.986;2023-11-19T12:31:33;99498.78;;;2.83;100.00
10310;BME280;5200;43.236;27.986;2023-11-19T12:34:06;99507.09;;;2.88;100.00
10310;BME280;5200;43.236;27.986;2023-11-19T12:36:38;99563.59;;;3.12;100.00
10310;BME280;5200;43.236;27.986;2023-11-19T12:39:06;99569.00;;;3.09;100.00
10310;BME280;5200;43.236;27.986;2023-11-19T12:41:48;99596.03;;;3.19;100.00
10310;BME280;5200;43.236;27.986;2023-11-19T12:44:15;99572.72;;;3.05;100.00
10310;BME280;5200;43.236;27.986;2023-11-19T12:46:42;99544.22;;;2.90;100.00
10310;BME280;5200;43.236;27.986;2023-11-19T12:49:11;99603.09;;;3.17;100.00
10310;BME280;5200;43.236;27.986;2023-11-19T12:51:38;99605.38;;;3.09;100.00
10310;BME280;5200;43.236;27.986;2023-11-19T12:54:06;99614.84;;;3.10;100.00
10310;BME280;5200;43.236;27.986;2023-11-19T12:56:33;99599.66;;;3.04;100.00
10310;BME280;5200;43.236;27.986;2023-11-19T12:59:10;99624.22;;;2.85;100.00
10310;BME280;5200;43.236;27.986;2023-11-19T13:01:38;99592.56;;;2.66;100.00
10310;BME280;5200;43.236;27.986;2023-11-19T13:04:16;99620.19;;;2.67;100.00
10310;BME280;5200;43.236;27.986;2023-11-19T13:06:45;99681.00;;;2.91;100.00
10310;BME280;5200;43.236;27.986;2023-11-19T13:09:22;99627.16;;;2.66;100.00
10310;BME280;5200;43.236;27.986;2023-11-19T13:11:53;99666.88;;;2.95;100.00
10310;BME280;5200;43.236;27.986;2023-11-19T13:14:20;99644.28;;;2.83;100.00